Arklow Wind — EIKZ — position and weather

sailwx.info

Track history (hours):
 
Tides and Currents Weather Stations Pressure Air Temp Water Temp Dewpoint Dewpoint Depression Visibility Wind Speed Wind Dir Waves Ship Positions

Arklow Wind

Last reported at 2015-Jul-04 07:33 UTC. Time now 2015-Jul-04 08:25 UTC.
Position N 51°00' E 002°11'.

Length 136 m; draft 5.1 m.

Type: Cargo ship. MMSI: 250506000.

Date/timePositionNaut miles runAvg speedWind from/ knotsBaromVisibWave heightAir tempDewpointWater temp
2015-Jul-04 07:33N 51°00' E 002°11'0 0.0
2015-Jul-04 06:33N 51°00' E 002°11'0 0.0
2015-Jul-04 05:33N 51°00' E 002°11'0 0.0
2015-Jul-04 03:33N 51°00' E 002°11'0 0.0
2015-Jul-04 00:30N 51°00' E 002°11'0 0.0
2015-Jul-03 22:30N 51°00' E 002°11'5 5.2
2015-Jul-03 21:28N 51°04' E 002°17'2 1.7
2015-Jul-03 20:24N 51°03' E 002°20'0 0.4
2015-Jul-03 19:32N 51°03' E 002°19'0 0.0
2015-Jul-03 18:29N 51°03' E 002°19'0 0.0
2015-Jul-03 17:32N 51°03' E 002°19'0 0.0
2015-Jul-03 16:29N 51°03' E 002°19'0 0.0
2015-Jul-03 15:32N 51°03' E 002°19'0 0.0
2015-Jul-03 14:32N 51°03' E 002°19'0 0.0
2015-Jul-03 12:23N 51°03' E 002°19'0 0.0
2015-Jul-03 11:32N 51°03' E 002°19'0 0.0
2015-Jul-03 10:20N 51°03' E 002°19'0 0.0
2015-Jul-03 09:29N 51°03' E 002°19'0 0.0
2015-Jul-03 08:29N 51°03' E 002°19'0 0.0
2015-Jul-03 07:32N 51°03' E 002°19'0 0.0
2015-Jul-03 06:32N 51°03' E 002°19'0 0.0
2015-Jul-03 05:32N 51°03' E 002°19'0 0.0
2015-Jul-03 03:05N 51°03' E 002°19'0 0.3
2015-Jul-03 02:33N 51°03' E 002°19'2 1.5
2015-Jul-03 01:18N 51°04' E 002°17'5 0.5
2015-Jul-02 14:08N 51°00' E 002°11'0 0.0
2015-Jul-02 13:23N 51°00' E 002°11'0 0.0
2015-Jul-02 12:29N 51°00' E 002°11'0 0.0
2015-Jul-02 11:32N 51°00' E 002°11'0 0.0
2015-Jul-02 10:32N 51°00' E 002°11'0 0.0
2015-Jul-02 09:14N 51°00' E 002°11'0 0.0
2015-Jul-02 08:29N 51°00' E 002°11'0 0.0
2015-Jul-02 07:32N 51°00' E 002°11'0 0.0
2015-Jul-02 06:32N 51°00' E 002°11'0 0.0
2015-Jul-02 05:26N 51°00' E 002°11'0 0.0
2015-Jul-02 04:28N 51°00' E 002°11'0 0.0
2015-Jul-02 02:19N 51°00' E 002°11'0 0.0
2015-Jul-02 01:31N 51°00' E 002°11'0 0.0
2015-Jul-01 22:31N 51°00' E 002°11'0 0.0
2015-Jul-01 16:28N 51°00' E 002°11'0 0.0
2015-Jul-01 14:31N 51°00' E 002°11'0 0.0
2015-Jul-01 13:07N 51°00' E 002°11'0 0.0
2015-Jul-01 10:19N 51°00' E 002°11'0 0.0
2015-Jul-01 08:31N 51°00' E 002°11'3 3.1
2015-Jul-01 07:33N 51°03' E 002°10'6 6.2
2015-Jul-01 06:33N 51°03' E 002°20'1 0.7
2015-Jul-01 05:32N 51°03' E 002°19'0 0.0
2015-Jul-01 04:23N 51°03' E 002°19'0 0.0
2015-Jul-01 03:32N 51°03' E 002°19'0 0.0
2015-Jul-01 02:23N 51°03' E 002°19'0 0.0
2015-Jul-01 01:29N 51°03' E 002°19'0 0.0
2015-Jul-01 00:32N 51°03' E 002°19'0 0.0
2015-Jun-30 23:32N 51°03' E 002°19'0 0.0
2015-Jun-30 22:32N 51°03' E 002°19'0 0.0
2015-Jun-30 21:32N 51°03' E 002°19'0 0.0
2015-Jun-30 20:32N 51°03' E 002°19'0 0.0
2015-Jun-30 19:32N 51°03' E 002°19'0 0.0
2015-Jun-30 18:32N 51°03' E 002°19'0 0.0
2015-Jun-30 17:29N 51°03' E 002°19'0 0.0
2015-Jun-30 15:32N 51°03' E 002°19'0 0.0
2015-Jun-30 14:29N 51°03' E 002°19'1 0.1
2015-Jun-30 09:19N 51°03' E 002°21'7 3.6
2015-Jun-30 07:23N 51°00' E 002°11'0 0.0
2015-Jun-30 06:29N 51°00' E 002°11'0 0.0
2015-Jun-30 05:23N 51°00' E 002°11'0 0.0
2015-Jun-30 01:29N 51°00' E 002°11'0 0.0
2015-Jun-30 00:29N 51°00' E 002°11'0 0.0
2015-Jun-29 23:29N 51°00' E 002°11'0 0.0
2015-Jun-29 21:32N 51°00' E 002°11'0 0.0
2015-Jun-29 19:32N 51°00' E 002°11'0 0.0
2015-Jun-29 18:32N 51°00' E 002°11'0 0.0
2015-Jun-29 17:32N 51°00' E 002°11'0 0.0
2015-Jun-29 16:32N 51°00' E 002°11'0 0.0
2015-Jun-29 15:32N 51°00' E 002°11'0 0.0
2015-Jun-29 14:32N 51°00' E 002°11'0 0.0
2015-Jun-29 13:29N 51°00' E 002°11'3 3.2
2015-Jun-29 12:33N 51°03' E 002°10'7 6.8
2015-Jun-29 11:32N 51°03' E 002°21'1 0.3
2015-Jun-29 06:31N 51°03' E 002°19'0 0.0
2015-Jun-29 05:25N 51°03' E 002°19'0 0.0
2015-Jun-29 02:10N 51°03' E 002°19'0 0.0
2015-Jun-29 01:33N 51°03' E 002°19'0 0.0
2015-Jun-28 20:18N 51°03' E 002°19'1 0.8
2015-Jun-28 19:19N 51°03' E 002°21'3 3.4
2015-Jun-28 18:33N 51°04' E 002°16'5 0.7
2015-Jun-28 11:29N 51°00' E 002°11'0 0.0
2015-Jun-28 10:32N 51°00' E 002°11'0 0.0
2015-Jun-28 09:26N 51°00' E 002°11'0 0.0
2015-Jun-28 08:32N 51°00' E 002°11'0 0.0
2015-Jun-28 07:32N 51°00' E 002°11'0 0.0
2015-Jun-28 06:26N 51°00' E 002°11'0 0.0
2015-Jun-28 05:32N 51°00' E 002°11'0 0.0
2015-Jun-28 04:32N 51°00' E 002°11'0 0.0
2015-Jun-28 03:32N 51°00' E 002°11'0 0.0
2015-Jun-28 01:32N 51°00' E 002°11'0 0.0
2015-Jun-27 21:26N 51°00' E 002°11'0 0.0
2015-Jun-27 19:05N 51°00' E 002°11'0 0.0
2015-Jun-27 18:28N 51°00' E 002°11'0 0.0
2015-Jun-27 17:28N 51°00' E 002°11'0 0.0
2015-Jun-27 16:31N 51°00' E 002°11'0 0.0
2015-Jun-27 15:28N 51°00' E 002°11'0 0.1
2015-Jun-27 14:33N 51°00' E 002°11'7 7.1
2015-Jun-27 13:33N 51°03' E 002°21'3 2.5
2015-Jun-27 12:31N 51°03' E 002°17'0 0.0
2015-Jun-27 11:16N 51°03' E 002°17'0 0.0
2015-Jun-27 10:28N 51°03' E 002°17'0 0.0
2015-Jun-27 01:25N 51°03' E 002°17'0 0.0
2015-Jun-26 17:13N 51°03' E 002°17'0 0.0
2015-Jun-26 16:22N 51°03' E 002°17'0 0.0
2015-Jun-26 15:22N 51°03' E 002°17'0 0.0
2015-Jun-26 14:30N 51°03' E 002°17'0 0.0
2015-Jun-26 13:30N 51°03' E 002°17'0 0.0
2015-Jun-26 12:30N 51°03' E 002°17'0 0.0
2015-Jun-26 11:33N 51°03' E 002°17'0 0.0
2015-Jun-26 08:33N 51°03' E 002°17'0 0.0
2015-Jun-26 07:30N 51°03' E 002°17'0 0.0
2015-Jun-26 06:27N 51°03' E 002°17'0 0.0
2015-Jun-26 05:30N 51°03' E 002°17'0 0.0
2015-Jun-26 04:33N 51°03' E 002°17'0 0.0
2015-Jun-26 03:33N 51°03' E 002°17'0 0.0
2015-Jun-26 02:33N 51°03' E 002°17'0 0.0
2015-Jun-26 01:33N 51°03' E 002°17'0 0.0
2015-Jun-26 00:33N 51°03' E 002°17'0 0.0
2015-Jun-25 23:30N 51°03' E 002°17'0 0.0
2015-Jun-25 20:33N 51°03' E 002°17'0 0.0
2015-Jun-25 19:33N 51°03' E 002°17'0 0.0
2015-Jun-25 18:33N 51°03' E 002°17'0 0.0
2015-Jun-25 17:30N 51°03' E 002°17'0 0.0
2015-Jun-25 16:18N 51°03' E 002°17'0 0.0
2015-Jun-25 15:30N 51°03' E 002°17'0 0.0
2015-Jun-25 14:30N 51°03' E 002°17'0 0.0
2015-Jun-25 12:09N 51°03' E 002°17'0 0.0
2015-Jun-25 11:33N 51°03' E 002°17'0 0.0
2015-Jun-25 10:18N 51°03' E 002°17'0 0.0
2015-Jun-25 09:09N 51°03' E 002°17'0 0.0
2015-Jun-25 08:09N 51°03' E 002°17'0 0.0
2015-Jun-25 05:33N 51°03' E 002°17'0 0.0
2015-Jun-25 04:12N 51°03' E 002°17'0 0.0
2015-Jun-25 03:30N 51°03' E 002°17'0 0.0
2015-Jun-25 01:27N 51°03' E 002°17'0 0.0
2015-Jun-25 00:33N 51°03' E 002°17'0 0.0
2015-Jun-24 23:30N 51°03' E 002°17'0 0.0
2015-Jun-24 22:24N 51°03' E 002°17'0 0.0
2015-Jun-24 21:32N 51°03' E 002°17'0 0.0
2015-Jun-24 20:33N 51°03' E 002°17'0 0.0
2015-Jun-24 18:33N 51°03' E 002°17'0 0.0
2015-Jun-24 17:32N 51°03' E 002°17'0 0.0
2015-Jun-24 16:18N 51°03' E 002°17'1 1.2
2015-Jun-24 15:33N 51°03' E 002°18'2 1.8
2015-Jun-24 14:33N 51°04' E 002°21'10 9.7
2015-Jun-24 13:33N 51°03' E 002°06'1110.6
2015-Jun-24 12:33N 51°02' E 001°49'1110.8
2015-Jun-24 11:33N 50°57' E 001°34'1410.8
2015-Jun-24 10:15N 50°45' E 001°23'  
Track history (hours):
 
Tides and Currents Weather Stations Pressure Air Temp Water Temp Dewpoint Dewpoint Depression Visibility Wind Speed Wind Dir Waves Ship Positions

Arklow Wind

Last reported at 2015-Jul-04 07:33 UTC. Time now 2015-Jul-04 08:25 UTC.
Position N 51°00' E 002°11'.

Length 136 m; draft 5.1 m.

Type: Cargo ship. MMSI: 250506000.

Date/timePositionNaut miles runAvg speedWind from/ knotsBaromVisibWave heightAir tempDewpointWater temp
2015-Jul-04 07:33N 51°00' E 002°11'0 0.0
2015-Jul-04 06:33N 51°00' E 002°11'0 0.0
2015-Jul-04 05:33N 51°00' E 002°11'0 0.0
2015-Jul-04 03:33N 51°00' E 002°11'0 0.0
2015-Jul-04 00:30N 51°00' E 002°11'0 0.0
2015-Jul-03 22:30N 51°00' E 002°11'5 5.2
2015-Jul-03 21:28N 51°04' E 002°17'2 1.7
2015-Jul-03 20:24N 51°03' E 002°20'0 0.4
2015-Jul-03 19:32N 51°03' E 002°19'0 0.0
2015-Jul-03 18:29N 51°03' E 002°19'0 0.0
2015-Jul-03 17:32N 51°03' E 002°19'0 0.0
2015-Jul-03 16:29N 51°03' E 002°19'0 0.0
2015-Jul-03 15:32N 51°03' E 002°19'0 0.0
2015-Jul-03 14:32N 51°03' E 002°19'0 0.0
2015-Jul-03 12:23N 51°03' E 002°19'0 0.0
2015-Jul-03 11:32N 51°03' E 002°19'0 0.0
2015-Jul-03 10:20N 51°03' E 002°19'0 0.0
2015-Jul-03 09:29N 51°03' E 002°19'0 0.0
2015-Jul-03 08:29N 51°03' E 002°19'0 0.0
2015-Jul-03 07:32N 51°03' E 002°19'0 0.0
2015-Jul-03 06:32N 51°03' E 002°19'0 0.0
2015-Jul-03 05:32N 51°03' E 002°19'0 0.0
2015-Jul-03 03:05N 51°03' E 002°19'0 0.3
2015-Jul-03 02:33N 51°03' E 002°19'2 1.5
2015-Jul-03 01:18N 51°04' E 002°17'5 0.5
2015-Jul-02 14:08N 51°00' E 002°11'0 0.0
2015-Jul-02 13:23N 51°00' E 002°11'0 0.0
2015-Jul-02 12:29N 51°00' E 002°11'0 0.0
2015-Jul-02 11:32N 51°00' E 002°11'0 0.0
2015-Jul-02 10:32N 51°00' E 002°11'0 0.0
2015-Jul-02 09:14N 51°00' E 002°11'0 0.0
2015-Jul-02 08:29N 51°00' E 002°11'0 0.0
2015-Jul-02 07:32N 51°00' E 002°11'0 0.0
2015-Jul-02 06:32N 51°00' E 002°11'0 0.0
2015-Jul-02 05:26N 51°00' E 002°11'0 0.0
2015-Jul-02 04:28N 51°00' E 002°11'0 0.0
2015-Jul-02 02:19N 51°00' E 002°11'0 0.0
2015-Jul-02 01:31N 51°00' E 002°11'0 0.0
2015-Jul-01 22:31N 51°00' E 002°11'0 0.0
2015-Jul-01 16:28N 51°00' E 002°11'0 0.0
2015-Jul-01 14:31N 51°00' E 002°11'0 0.0
2015-Jul-01 13:07N 51°00' E 002°11'0 0.0
2015-Jul-01 10:19N 51°00' E 002°11'0 0.0
2015-Jul-01 08:31N 51°00' E 002°11'3 3.1
2015-Jul-01 07:33N 51°03' E 002°10'6 6.2
2015-Jul-01 06:33N 51°03' E 002°20'1 0.7
2015-Jul-01 05:32N 51°03' E 002°19'0 0.0
2015-Jul-01 04:23N 51°03' E 002°19'0 0.0
2015-Jul-01 03:32N 51°03' E 002°19'0 0.0
2015-Jul-01 02:23N 51°03' E 002°19'0 0.0
2015-Jul-01 01:29N 51°03' E 002°19'0 0.0
2015-Jul-01 00:32N 51°03' E 002°19'0 0.0
2015-Jun-30 23:32N 51°03' E 002°19'0 0.0
2015-Jun-30 22:32N 51°03' E 002°19'0 0.0
2015-Jun-30 21:32N 51°03' E 002°19'0 0.0
2015-Jun-30 20:32N 51°03' E 002°19'0 0.0
2015-Jun-30 19:32N 51°03' E 002°19'0 0.0
2015-Jun-30 18:32N 51°03' E 002°19'0 0.0
2015-Jun-30 17:29N 51°03' E 002°19'0 0.0
2015-Jun-30 15:32N 51°03' E 002°19'0 0.0
2015-Jun-30 14:29N 51°03' E 002°19'1 0.1
2015-Jun-30 09:19N 51°03' E 002°21'7 3.6
2015-Jun-30 07:23N 51°00' E 002°11'0 0.0
2015-Jun-30 06:29N 51°00' E 002°11'0 0.0
2015-Jun-30 05:23N 51°00' E 002°11'0 0.0
2015-Jun-30 01:29N 51°00' E 002°11'0 0.0
2015-Jun-30 00:29N 51°00' E 002°11'0 0.0
2015-Jun-29 23:29N 51°00' E 002°11'0 0.0
2015-Jun-29 21:32N 51°00' E 002°11'0 0.0
2015-Jun-29 19:32N 51°00' E 002°11'0 0.0
2015-Jun-29 18:32N 51°00' E 002°11'0 0.0
2015-Jun-29 17:32N 51°00' E 002°11'0 0.0
2015-Jun-29 16:32N 51°00' E 002°11'0 0.0
2015-Jun-29 15:32N 51°00' E 002°11'0 0.0
2015-Jun-29 14:32N 51°00' E 002°11'0 0.0
2015-Jun-29 13:29N 51°00' E 002°11'3 3.2
2015-Jun-29 12:33N 51°03' E 002°10'7 6.8
2015-Jun-29 11:32N 51°03' E 002°21'1 0.3
2015-Jun-29 06:31N 51°03' E 002°19'0 0.0
2015-Jun-29 05:25N 51°03' E 002°19'0 0.0
2015-Jun-29 02:10N 51°03' E 002°19'0 0.0
2015-Jun-29 01:33N 51°03' E 002°19'0 0.0
2015-Jun-28 20:18N 51°03' E 002°19'1 0.8
2015-Jun-28 19:19N 51°03' E 002°21'3 3.4
2015-Jun-28 18:33N 51°04' E 002°16'5 0.7
2015-Jun-28 11:29N 51°00' E 002°11'0 0.0
2015-Jun-28 10:32N 51°00' E 002°11'0 0.0
2015-Jun-28 09:26N 51°00' E 002°11'0 0.0
2015-Jun-28 08:32N 51°00' E 002°11'0 0.0
2015-Jun-28 07:32N 51°00' E 002°11'0 0.0
2015-Jun-28 06:26N 51°00' E 002°11'0 0.0
2015-Jun-28 05:32N 51°00' E 002°11'0 0.0
2015-Jun-28 04:32N 51°00' E 002°11'0 0.0
2015-Jun-28 03:32N 51°00' E 002°11'0 0.0
2015-Jun-28 01:32N 51°00' E 002°11'0 0.0
2015-Jun-27 21:26N 51°00' E 002°11'0 0.0
2015-Jun-27 19:05N 51°00' E 002°11'0 0.0
2015-Jun-27 18:28N 51°00' E 002°11'0 0.0
2015-Jun-27 17:28N 51°00' E 002°11'0 0.0
2015-Jun-27 16:31N 51°00' E 002°11'0 0.0
2015-Jun-27 15:28N 51°00' E 002°11'0 0.1
2015-Jun-27 14:33N 51°00' E 002°11'7 7.1
2015-Jun-27 13:33N 51°03' E 002°21'3 2.5
2015-Jun-27 12:31N 51°03' E 002°17'0 0.0
2015-Jun-27 11:16N 51°03' E 002°17'0 0.0
2015-Jun-27 10:28N 51°03' E 002°17'0 0.0
2015-Jun-27 01:25N 51°03' E 002°17'0 0.0
2015-Jun-26 17:13N 51°03' E 002°17'0 0.0
2015-Jun-26 16:22N 51°03' E 002°17'0 0.0
2015-Jun-26 15:22N 51°03' E 002°17'0 0.0
2015-Jun-26 14:30N 51°03' E 002°17'0 0.0
2015-Jun-26 13:30N 51°03' E 002°17'0 0.0
2015-Jun-26 12:30N 51°03' E 002°17'0 0.0
2015-Jun-26 11:33N 51°03' E 002°17'0 0.0
2015-Jun-26 08:33N 51°03' E 002°17'0 0.0
2015-Jun-26 07:30N 51°03' E 002°17'0 0.0
2015-Jun-26 06:27N 51°03' E 002°17'0 0.0
2015-Jun-26 05:30N 51°03' E 002°17'0 0.0
2015-Jun-26 04:33N 51°03' E 002°17'0 0.0
2015-Jun-26 03:33N 51°03' E 002°17'0 0.0
2015-Jun-26 02:33N 51°03' E 002°17'0 0.0
2015-Jun-26 01:33N 51°03' E 002°17'0 0.0
2015-Jun-26 00:33N 51°03' E 002°17'0 0.0
2015-Jun-25 23:30N 51°03' E 002°17'0 0.0
2015-Jun-25 20:33N 51°03' E 002°17'0 0.0
2015-Jun-25 19:33N 51°03' E 002°17'0 0.0
2015-Jun-25 18:33N 51°03' E 002°17'0 0.0
2015-Jun-25 17:30N 51°03' E 002°17'0 0.0
2015-Jun-25 16:18N 51°03' E 002°17'0 0.0
2015-Jun-25 15:30N 51°03' E 002°17'0 0.0
2015-Jun-25 14:30N 51°03' E 002°17'0 0.0
2015-Jun-25 12:09N 51°03' E 002°17'0 0.0
2015-Jun-25 11:33N 51°03' E 002°17'0 0.0
2015-Jun-25 10:18N 51°03' E 002°17'0 0.0
2015-Jun-25 09:09N 51°03' E 002°17'0 0.0
2015-Jun-25 08:09N 51°03' E 002°17'0 0.0
2015-Jun-25 05:33N 51°03' E 002°17'0 0.0
2015-Jun-25 04:12N 51°03' E 002°17'0 0.0
2015-Jun-25 03:30N 51°03' E 002°17'0 0.0
2015-Jun-25 01:27N 51°03' E 002°17'0 0.0
2015-Jun-25 00:33N 51°03' E 002°17'0 0.0
2015-Jun-24 23:30N 51°03' E 002°17'0 0.0
2015-Jun-24 22:24N 51°03' E 002°17'0 0.0
2015-Jun-24 21:32N 51°03' E 002°17'0 0.0
2015-Jun-24 20:33N 51°03' E 002°17'0 0.0
2015-Jun-24 18:33N 51°03' E 002°17'0 0.0
2015-Jun-24 17:32N 51°03' E 002°17'0 0.0
2015-Jun-24 16:18N 51°03' E 002°17'1 1.2
2015-Jun-24 15:33N 51°03' E 002°18'2 1.8
2015-Jun-24 14:33N 51°04' E 002°21'10 9.7
2015-Jun-24 13:33N 51°03' E 002°06'1110.6
2015-Jun-24 12:33N 51°02' E 001°49'1110.8
2015-Jun-24 11:33N 50°57' E 001°34'1410.8
2015-Jun-24 10:15N 50°45' E 001°23'  

Dump ship's entire track history